Time;durP1;ratioP1;P1;durP2;ratioP2;P2;SDS_P1;SDS_P2;PMS_P1;PMS_P2;Temp;Humidity;BMP_temperature;BMP_pressure;BME280_temperature;BME280_humidity;BME280_pressure;Samples;Min_cycle;Max_cycle;Signal;HPM_P1;HPM_P2
2023/08/10 00:00:27;;;;;;;11.87;3.30;;;;;;;10.27;100.00;101659.66;7399469;19;20408;-44
2023/08/10 00:03:00;;;;;;;8.40;2.93;;;;;;;10.29;100.00;101654.59;7370753;19;20530;-38
2023/08/10 00:05:31;;;;;;;15.93;3.10;;;;;;;10.24;100.00;101659.47;7396701;19;20451;-38
2023/08/10 00:08:01;;;;;;;7.60;2.50;;;;;;;10.25;100.00;101646.66;7372039;19;20420;-36
2023/08/10 00:10:31;;;;;;;10.83;2.73;;;;;;;10.22;100.00;101641.34;7395747;19;20415;-41
2023/08/10 00:13:00;;;;;;;5.40;2.80;;;;;;;10.18;100.00;101630.72;7371032;19;20440;-39
2023/08/10 00:15:30;;;;;;;6.10;2.80;;;;;;;10.12;100.00;101629.56;7395545;19;20454;-38
2023/08/10 00:18:02;;;;;;;17.50;3.50;;;;;;;10.16;100.00;101614.28;7374465;19;20787;-36
2023/08/10 00:20:32;;;;;;;13.17;3.00;;;;;;;10.15;100.00;101607.38;7398568;19;20429;-38
2023/08/10 00:23:02;;;;;;;10.23;2.60;;;;;;;10.15;100.00;101605.66;7371839;19;20814;-37
2023/08/10 00:25:36;;;;;;;9.00;2.53;;;;;;;10.13;100.00;101599.53;7395269;19;20850;-37
2023/08/10 00:28:07;;;;;;;9.20;2.90;;;;;;;10.12;100.00;101596.06;7366599;19;21070;-37
2023/08/10 00:30:36;;;;;;;7.30;2.53;;;;;;;10.10;100.00;101596.78;7395886;19;20411;-38
2023/08/10 00:33:09;;;;;;;11.43;2.93;;;;;;;10.09;100.00;101590.75;7371331;19;20443;-39
2023/08/10 00:35:49;;;;;;;6.13;2.90;;;;;;;10.06;100.00;101585.38;7395683;19;20469;-38
2023/08/10 00:38:18;;;;;;;9.37;2.93;;;;;;;10.06;100.00;101587.09;7371666;19;20466;-39
2023/08/10 00:40:48;;;;;;;13.40;3.93;;;;;;;10.02;100.00;101586.03;7396360;19;20769;-36
2023/08/10 00:43:18;;;;;;;9.20;3.40;;;;;;;10.01;100.00;101584.25;7373198;19;20467;-36
2023/08/10 00:45:48;;;;;;;14.33;4.57;;;;;;;10.02;100.00;101585.13;7392622;19;20841;-36
2023/08/10 00:48:20;;;;;;;15.30;3.53;;;;;;;10.00;100.00;101572.16;7374602;19;20435;-40
2023/08/10 00:50:50;;;;;;;8.80;3.93;;;;;;;9.96;100.00;101575.38;7395155;19;20424;-40
2023/08/10 00:53:20;;;;;;;7.03;2.83;;;;;;;9.94;100.00;101571.81;7372662;19;20455;-36
2023/08/10 00:55:51;;;;;;;6.50;3.47;;;;;;;9.96;100.00;101577.94;7394725;19;20459;-37
2023/08/10 00:58:21;;;;;;;8.93;3.47;;;;;;;9.94;100.00;101571.81;7372711;19;20438;-39
2023/08/10 01:00:51;;;;;;;7.37;2.47;;;;;;;9.96;100.00;101580.53;7392925;19;20411;-40
2023/08/10 01:03:23;;;;;;;14.20;2.93;;;;;;;9.92;100.00;101575.97;7372061;19;20463;-41
2023/08/10 01:06:00;;;;;;;7.97;2.37;;;;;;;9.87;100.00;101575.72;7393495;19;20464;-38
2023/08/10 01:08:34;;;;;;;13.50;3.00;;;;;;;9.85;100.00;101572.19;7372616;19;20981;-36
2023/08/10 01:11:14;;;;;;;7.23;2.63;;;;;;;9.79;100.00;101570.13;7395697;19;20954;-40
2023/08/10 01:13:49;;;;;;;6.93;2.90;;;;;;;9.80;100.00;101574.47;7369638;19;20426;-37
2023/08/10 01:16:31;;;;;;;9.13;2.97;;;;;;;9.77;100.00;101569.16;7395857;19;20457;-36
2023/08/10 01:19:10;;;;;;;12.93;3.03;;;;;;;9.73;100.00;101572.34;7371436;19;20466;-36
2023/08/10 01:21:42;;;;;;;6.13;2.37;;;;;;;9.70;100.00;101574.75;7397033;19;20492;-37
2023/08/10 01:24:19;;;;;;;13.67;3.07;;;;;;;9.70;100.00;101574.75;7370149;19;20479;-35
2023/08/10 01:26:53;;;;;;;11.83;2.27;;;;;;;9.69;100.00;101585.88;7394385;19;20528;-36
2023/08/10 01:29:24;;;;;;;19.43;3.37;;;;;;;9.67;100.00;101582.28;7371745;19;20473;-38
2023/08/10 01:31:55;;;;;;;7.50;2.73;;;;;;;9.69;100.00;101585.88;7394502;19;20853;-36
2023/08/10 01:34:24;;;;;;;6.93;2.83;;;;;;;9.69;100.00;101591.03;7370438;19;20455;-36
2023/08/10 01:36:54;;;;;;;13.60;2.60;;;;;;;9.71;100.00;101585.13;7393400;19;20436;-36
2023/08/10 01:39:24;;;;;;;13.43;3.77;;;;;;;9.66;100.00;101590.81;7370985;19;20447;-37
2023/08/10 01:41:56;;;;;;;12.63;3.40;;;;;;;9.64;100.00;101589.84;7393402;19;20483;-36
2023/08/10 01:44:26;;;;;;;17.20;2.80;;;;;;;9.56;100.00;101582.56;7367269;19;20454;-36
2023/08/10 01:46:58;;;;;;;13.47;3.43;;;;;;;9.61;100.00;101594.81;7393317;19;20455;-36
2023/08/10 01:49:28;;;;;;;10.33;3.67;;;;;;;9.56;100.00;101590.28;7370803;19;20470;-40
2023/08/10 01:52:00;;;;;;;9.43;3.00;;;;;;;9.54;100.00;101585.84;7390120;19;20407;-37
2023/08/10 01:54:30;;;;;;;10.43;3.90;;;;;;;9.54;100.00;101591.00;7370427;19;20463;-37
2023/08/10 01:57:02;;;;;;;12.30;2.97;;;;;;;9.56;100.00;101594.56;7393422;19;20467;-36
2023/08/10 01:59:32;;;;;;;9.83;2.90;;;;;;;9.56;100.00;101587.72;7370995;19;20890;-37
2023/08/10 02:02:02;;;;;;;12.23;3.77;;;;;;;9.55;100.00;101595.34;7396073;19;20426;-39
2023/08/10 02:04:31;;;;;;;12.27;4.33;;;;;;;9.55;100.00;101595.34;7369901;19;20431;-38
2023/08/10 02:07:01;;;;;;;17.60;3.17;;;;;;;9.51;100.00;101595.97;7393171;19;20412;-36
2023/08/10 02:09:31;;;;;;;10.93;2.80;;;;;;;9.54;100.00;101591.00;7370230;19;20441;-42
2023/08/10 02:12:04;;;;;;;9.90;2.70;;;;;;;9.53;100.00;101595.25;7391074;19;21103;-36
2023/08/10 02:14:34;;;;;;;8.10;3.20;;;;;;;9.53;100.00;101595.25;7369596;19;20467;-37
2023/08/10 02:17:03;;;;;;;6.57;2.43;;;;;;;9.59;100.00;101600.78;7394172;19;20422;-44
2023/08/10 02:19:33;;;;;;;6.90;2.80;;;;;;;9.63;100.00;101590.66;7369775;19;20463;-36
2023/08/10 02:22:03;;;;;;;5.47;2.57;;;;;;;9.69;100.00;101596.19;7392702;19;20935;-36
2023/08/10 02:24:33;;;;;;;11.73;2.87;;;;;;;9.67;100.00;101598.66;7369162;19;20526;-39
2023/08/10 02:27:06;;;;;;;7.30;2.10;;;;;;;9.70;100.00;101592.78;7394350;19;20419;-36
2023/08/10 02:29:36;;;;;;;5.80;2.30;;;;;;;9.73;100.00;101592.97;7372650;19;21262;-36
2023/08/10 02:32:06;;;;;;;14.63;3.20;;;;;;;9.73;100.00;101592.97;7394239;19;20771;-36
2023/08/10 02:34:36;;;;;;;9.93;2.60;;;;;;;9.73;100.00;101592.97;7371199;19;21060;-42
2023/08/10 02:37:05;;;;;;;12.33;3.93;;;;;;;9.74;100.00;101599.88;7388111;19;20411;-36
2023/08/10 02:39:35;;;;;;;7.80;2.30;;;;;;;9.72;100.00;101598.91;7368232;19;20445;-36
2023/08/10 02:42:08;;;;;;;11.37;2.90;;;;;;;9.73;100.00;101598.13;7392677;19;20494;-36
2023/08/10 02:44:37;;;;;;;6.87;3.17;;;;;;;9.70;100.00;101601.41;7371085;19;21001;-37
2023/08/10 02:47:08;;;;;;;12.53;3.87;;;;;;;9.64;100.00;101602.75;7394299;19;20801;-37
2023/08/10 02:49:38;;;;;;;7.87;2.60;;;;;;;9.63;100.00;101604.41;7371121;19;21164;-36
2023/08/10 02:52:08;;;;;;;13.57;2.60;;;;;;;9.57;100.00;101607.53;7391470;19;20420;-37
2023/08/10 02:54:38;;;;;;;6.83;2.30;;;;;;;9.52;100.00;101614.09;7370876;19;20464;-37
2023/08/10 02:57:10;;;;;;;9.30;2.80;;;;;;;9.52;100.00;101621.81;7391891;19;20812;-36
2023/08/10 02:59:40;;;;;;;7.23;2.80;;;;;;;9.52;100.00;101619.25;7371890;19;20453;-38
2023/08/10 03:02:10;;;;;;;9.57;2.60;;;;;;;9.56;100.00;101615.16;7391515;19;20411;-37
2023/08/10 03:04:39;;;;;;;11.10;3.37;;;;;;;9.57;100.00;101622.09;7370304;19;20443;-37
2023/08/10 03:07:10;;;;;;;14.40;2.40;;;;;;;9.51;100.00;101622.63;7391249;19;21045;-36
2023/08/10 03:09:41;;;;;;;5.13;3.13;;;;;;;9.48;100.00;101614.69;7369884;19;20468;-37
2023/08/10 03:12:14;;;;;;;10.20;2.60;;;;;;;9.47;100.00;101620.66;7380973;19;20422;-36
2023/08/10 03:14:44;;;;;;;9.10;2.40;;;;;;;9.46;100.00;101621.44;7393029;19;20416;-36
2023/08/10 03:17:13;;;;;;;8.57;2.70;;;;;;;9.47;100.00;101623.22;7367661;19;20475;-38
2023/08/10 03:19:44;;;;;;;4.73;2.73;;;;;;;9.42;100.00;101622.94;7388496;19;20485;-36
2023/08/10 03:22:14;;;;;;;5.20;1.80;;;;;;;9.45;100.00;101619.69;7365556;19;20408;-36
2023/08/10 03:24:44;;;;;;;6.03;2.60;;;;;;;9.48;100.00;101626.69;7392875;19;20411;-36
2023/08/10 03:27:16;;;;;;;9.67;2.50;;;;;;;9.52;100.00;101619.25;7373727;19;20448;-37
2023/08/10 03:29:46;;;;;;;6.30;2.13;;;;;;;9.54;100.00;101620.22;7392458;19;20395;-37
2023/08/10 03:32:15;;;;;;;13.90;3.10;;;;;;;9.55;100.00;101614.25;7372904;19;20933;-38
2023/08/10 03:34:45;;;;;;;7.10;2.60;;;;;;;9.55;100.00;101621.97;7392920;19;20415;-37
2023/08/10 03:37:16;;;;;;;4.17;2.30;;;;;;;9.59;100.00;101620.50;7372800;19;20479;-36
2023/08/10 03:39:46;;;;;;;9.43;2.33;;;;;;;9.59;100.00;101631.69;7395867;19;20790;-37
2023/08/10 03:42:18;;;;;;;6.03;2.27;;;;;;;9.62;100.00;101622.34;7369883;19;20491;-38
2023/08/10 03:44:48;;;;;;;13.53;2.00;;;;;;;9.62;100.00;101624.94;7394421;19;20972;-39
2023/08/10 03:47:21;;;;;;;6.40;2.53;;;;;;;9.67;100.00;101638.97;7373761;19;20407;-36
2023/08/10 03:49:50;;;;;;;4.60;2.20;;;;;;;9.68;100.00;101640.75;7394053;19;20400;-37
2023/08/10 03:52:20;;;;;;;17.93;8.50;;;;;;;9.86;100.00;101641.84;7369738;19;20408;-37
2023/08/10 03:54:50;;;;;;;10.03;6.00;;;;;;;10.48;100.00;101653.97;7392782;19;20432;-36
2023/08/10 03:57:23;;;;;;;14.47;6.73;;;;;;;10.56;100.00;101651.81;7372822;19;20418;-36
2023/08/10 03:59:53;;;;;;;15.90;6.30;;;;;;;10.44;100.00;101658.06;7393603;19;20433;-37
2023/08/10 04:02:22;;;;;;;8.00;2.90;;;;;;;10.55;100.00;101671.56;7371683;19;20420;-39
2023/08/10 04:04:52;;;;;;;54.73;24.60;;;;;;;10.40;100.00;101684.44;7392692;19;20495;-38
2023/08/10 04:07:23;;;;;;;10.30;4.40;;;;;;;10.55;100.00;101691.34;7373920;19;20424;-36
2023/08/10 04:09:52;;;;;;;12.63;7.03;;;;;;;10.66;100.00;101691.13;7395661;19;20476;-37
2023/08/10 04:12:26;;;;;;;22.97;10.77;;;;;;;10.72;100.00;101694.84;7372657;19;20415;-36
2023/08/10 04:14:55;;;;;;;15.30;7.07;;;;;;;10.79;100.00;101702.13;7392064;19;21213;-37
2023/08/10 04:17:25;;;;;;;10.50;3.17;;;;;;;10.55;100.00;101717.13;7372774;19;20422;-37
2023/08/10 04:19:56;;;;;;;11.67;3.63;;;;;;;10.25;100.00;101730.88;7396087;19;20435;-36
2023/08/10 04:22:25;;;;;;;7.20;2.53;;;;;;;10.13;100.00;101737.09;7372593;19;20491;-36
2023/08/10 04:24:55;;;;;;;6.93;2.60;;;;;;;10.04;100.00;101738.25;7392183;19;20673;-36
2023/08/10 04:27:28;;;;;;;10.77;2.47;;;;;;;10.04;100.00;101733.09;7375327;19;20430;-39
2023/08/10 04:29:59;;;;;;;10.87;2.70;;;;;;;10.09;100.00;101735.13;7395474;19;20404;-36
2023/08/10 04:32:28;;;;;;;5.00;1.90;;;;;;;10.09;100.00;101735.13;7372474;19;20504;-38
2023/08/10 04:34:58;;;;;;;7.53;2.50;;;;;;;10.13;100.00;101737.09;7393208;19;20491;-36
2023/08/10 04:37:27;;;;;;;12.03;1.90;;;;;;;10.22;100.00;101728.13;7372940;19;20424;-36
2023/08/10 04:39:57;;;;;;;6.57;2.77;;;;;;;10.22;100.00;101731.59;7395558;19;20408;-37
2023/08/10 04:42:29;;;;;;;13.67;3.33;;;;;;;10.27;100.00;101731.88;7372433;19;20403;-36
2023/08/10 04:44:59;;;;;;;4.27;2.13;;;;;;;10.28;100.00;101731.06;7395143;19;20414;-36
2023/08/10 04:47:28;;;;;;;7.90;2.23;;;;;;;10.27;100.00;101732.75;7369602;19;20448;-36
2023/08/10 04:49:58;;;;;;;7.40;2.20;;;;;;;10.27;100.00;101732.75;7394333;19;20769;-37
2023/08/10 04:52:28;;;;;;;7.97;2.20;;;;;;;10.28;100.00;101723.31;7369554;19;20407;-36
2023/08/10 04:54:58;;;;;;;7.57;2.37;;;;;;;10.28;100.00;101723.31;7395664;19;20969;-37
2023/08/10 04:57:30;;;;;;;6.73;2.20;;;;;;;10.32;100.00;101730.47;7368860;19;20812;-38
2023/08/10 05:00:02;;;;;;;5.90;2.33;;;;;;;10.34;100.00;101723.69;7393209;19;20402;-37
2023/08/10 05:02:34;;;;;;;15.23;2.10;;;;;;;10.39;100.00;101721.38;7367604;19;21088;-39
2023/08/10 05:05:03;;;;;;;5.87;2.50;;;;;;;10.43;100.00;101725.94;7389756;19;20428;-35
2023/08/10 05:07:33;;;;;;;5.30;2.50;;;;;;;10.49;100.00;101727.97;7370001;19;21007;-37
2023/08/10 05:10:06;;;;;;;8.67;1.93;;;;;;;10.53;100.00;101729.94;7392931;19;20380;-39
2023/08/10 05:12:39;;;;;;;12.63;2.60;;;;;;;10.50;100.00;101735.81;7365579;19;20395;-36
2023/08/10 05:15:11;;;;;;;5.07;2.20;;;;;;;10.56;100.00;101737.84;7389849;19;20429;-37
2023/08/10 05:17:41;;;;;;;6.90;2.57;;;;;;;10.61;100.00;101739.00;7366757;19;20415;-37
2023/08/10 05:20:13;;;;;;;4.23;1.90;;;;;;;10.61;100.00;101746.75;7394865;19;20827;-36
2023/08/10 05:22:43;;;;;;;7.10;2.30;;;;;;;10.63;100.00;101746.84;7368308;19;21362;-36
2023/08/10 05:25:14;;;;;;;6.80;2.40;;;;;;;10.71;100.00;101739.53;7390891;19;20415;-36
2023/08/10 05:27:50;;;;;;;6.73;2.57;;;;;;;10.73;100.00;101748.25;7366859;19;20401;-36
2023/08/10 05:30:19;;;;;;;5.50;2.33;;;;;;;10.79;100.00;101758.94;7390822;19;20392;-36
2023/08/10 05:32:49;;;;;;;7.40;2.17;;;;;;;10.86;100.00;101766.22;7368879;19;20403;-37
2023/08/10 05:35:20;;;;;;;4.93;2.03;;;;;;;10.96;100.00;101774.50;7393469;19;20472;-37
2023/08/10 05:37:50;;;;;;;8.37;2.30;;;;;;;10.96;100.00;101783.13;7367841;19;20423;-37
2023/08/10 05:40:20;;;;;;;7.10;2.20;;;;;;;11.05;100.00;101782.75;7390634;19;20388;-36
2023/08/10 05:42:52;;;;;;;16.43;2.93;;;;;;;11.05;100.00;101787.91;7366854;19;20407;-37
2023/08/10 05:45:22;;;;;;;8.20;2.10;;;;;;;11.00;100.00;101785.09;7389451;19;20496;-37
2023/08/10 05:47:52;;;;;;;10.63;2.47;;;;;;;11.03;100.00;101789.53;7368217;19;20391;-38
2023/08/10 05:50:22;;;;;;;11.60;2.40;;;;;;;11.01;100.00;101780.78;7391368;19;20408;-39
2023/08/10 05:52:52;;;;;;;13.10;2.73;;;;;;;10.99;100.00;101779.81;7366614;19;20419;-36
2023/08/10 05:55:22;;;;;;;10.40;2.23;;;;;;;11.04;100.00;101780.97;7389176;19;20449;-39
2023/08/10 05:57:54;;;;;;;9.20;2.50;;;;;;;11.18;100.00;101779.16;7366987;19;20399;-37
2023/08/10 06:00:24;;;;;;;5.97;2.23;;;;;;;11.31;100.00;101781.63;7389267;19;20399;-40
2023/08/10 06:02:53;;;;;;;7.10;2.40;;;;;;;11.33;100.00;101779.09;7364243;19;20430;-39
2023/08/10 06:05:23;;;;;;;6.50;2.60;;;;;;;11.33;100.00;101779.09;7388819;19;20419;-39
2023/08/10 06:07:53;;;;;;;13.53;3.40;;;;;;;11.41;100.00;101787.28;7366719;19;20412;-38
2023/08/10 06:10:23;;;;;;;8.47;2.50;;;;;;;11.52;100.00;101793.03;7390312;19;20412;-39
2023/08/10 06:12:55;;;;;;;8.07;2.47;;;;;;;11.55;100.00;101795.78;7363331;19;20436;-38
2023/08/10 06:15:25;;;;;;;7.03;2.80;;;;;;;11.56;100.00;101802.75;7388582;19;20838;-38
2023/08/10 06:17:55;;;;;;;4.20;1.77;;;;;;;11.61;100.00;101811.63;7365774;19;20423;-40
2023/08/10 06:20:26;;;;;;;8.17;2.83;;;;;;;11.60;100.00;101817.63;7388394;19;20472;-37
2023/08/10 06:22:56;;;;;;;8.30;3.00;;;;;;;11.68;100.00;101823.19;7365084;19;20387;-38
2023/08/10 06:25:26;;;;;;;5.43;2.23;;;;;;;11.69;100.00;101820.69;7388873;19;20423;-37
2023/08/10 06:27:59;;;;;;;11.20;2.17;;;;;;;11.70;100.00;101812.13;7365390;19;20942;-38
2023/08/10 06:30:28;;;;;;;8.63;2.10;;;;;;;11.82;100.00;101826.53;7387485;19;20394;-37
2023/08/10 06:32:58;;;;;;;12.07;2.30;;;;;;;11.94;100.00;101832.34;7364677;19;20391;-37
2023/08/10 06:35:28;;;;;;;7.43;2.17;;;;;;;11.98;100.00;101834.31;7387428;19;20435;-38
2023/08/10 06:37:58;;;;;;;6.47;1.90;;;;;;;12.07;100.00;101836.53;7357393;19;20420;-37
2023/08/10 06:40:28;;;;;;;10.23;2.40;;;;;;;12.13;100.00;101843.72;7388800;19;20411;-42
2023/08/10 06:43:00;;;;;;;8.60;2.27;;;;;;;12.22;100.00;101859.72;7369017;19;20423;-42
2023/08/10 06:45:30;;;;;;;10.37;2.10;;;;;;;12.33;100.00;101851.63;7392701;19;20462;-41
2023/08/10 06:48:00;;;;;;;9.83;2.77;;;;;;;12.40;100.00;101864.06;7368248;19;20444;-37
2023/08/10 06:50:30;;;;;;;9.23;2.30;;;;;;;12.44;100.00;101866.00;7391174;19;20415;-36
2023/08/10 06:53:00;;;;;;;13.93;2.40;;;;;;;12.49;100.00;101867.16;7368907;19;20427;-42
2023/08/10 06:55:30;;;;;;;5.10;1.70;;;;;;;12.62;100.00;101867.78;7390962;19;20813;-41
2023/08/10 06:58:02;;;;;;;13.93;2.50;;;;;;;12.73;100.00;101869.22;7368040;19;20447;-37
2023/08/10 07:00:32;;;;;;;10.77;2.73;;;;;;;12.86;100.00;101860.34;7401475;19;20399;-38
2023/08/10 07:03:03;;;;;;;192.77;75.33;;;;;;;12.90;100.00;101871.75;7376404;19;20510;-39
2023/08/10 07:05:32;;;;;;;13.07;2.80;;;;;;;12.94;100.00;101884.06;7398305;19;20454;-40
2023/08/10 07:08:02;;;;;;;49.53;20.37;;;;;;;13.12;100.00;101883.19;7375039;19;20491;-38
2023/08/10 07:10:32;;;;;;;32.30;13.70;;;;;;;13.24;100.00;101881.19;7401069;19;20948;-38
2023/08/10 07:13:04;;;;;;;25.53;4.23;;;;;;;13.24;100.00;101887.25;7374550;19;20498;-39
2023/08/10 07:15:34;;;;;;;10.50;2.43;;;;;;;13.17;100.00;101903.31;7397457;19;20439;-38
2023/08/10 07:18:04;;;;;;;42.60;12.27;;;;;;;13.22;100.00;101909.63;7375040;19;20439;-39
2023/08/10 07:20:35;;;;;;;8.50;2.33;;;;;;;13.38;100.00;101905.19;7401554;19;20889;-36
2023/08/10 07:23:05;;;;;;;13.87;5.00;;;;;;;13.43;100.00;101910.59;7373726;19;20430;-39
2023/08/10 07:25:36;;;;;;;44.83;18.17;;;;;;;13.53;100.00;101927.53;7398701;19;20461;-42
2023/08/10 07:28:09;;;;;;;65.43;22.03;;;;;;;13.68;100.00;101942.94;7373670;19;20432;-40
2023/08/10 07:30:38;;;;;;;9.97;3.60;;;;;;;13.88;100.00;101956.84;7400501;19;20415;-36
2023/08/10 07:33:09;;;;;;;13.23;3.63;;;;;;;14.12;100.00;101971.78;7373696;19;20427;-37
2023/08/10 07:35:38;;;;;;;8.87;2.67;;;;;;;14.22;100.00;101991.25;7396097;19;20514;-38
2023/08/10 07:38:08;;;;;;;7.63;2.30;;;;;;;14.28;100.00;102010.63;7371844;19;20450;-37
2023/08/10 07:40:38;;;;;;;7.57;2.43;;;;;;;14.30;100.00;102034.94;7398245;19;20407;-41
2023/08/10 07:43:11;;;;;;;17.63;4.23;;;;;;;14.34;100.00;102051.53;7371200;19;20446;-37
2023/08/10 07:45:40;;;;;;;6.97;3.10;;;;;;;14.56;100.00;102053.41;7395212;19;20451;-37
2023/08/10 07:48:10;;;;;;;26.57;8.60;;;;;;;14.65;100.00;102063.34;7374561;19;20446;-41
2023/08/10 07:50:40;;;;;;;41.63;18.13;;;;;;;14.72;100.00;102073.19;7400063;19;20419;-43
2023/08/10 07:53:09;;;;;;;18.47;6.67;;;;;;;14.80;100.00;102088.28;7372353;19;20985;-36
2023/08/10 07:55:39;;;;;;;12.33;2.90;;;;;;;14.72;100.00;102101.78;7397200;19;20447;-39
2023/08/10 07:58:12;;;;;;;25.63;9.07;;;;;;;14.79;100.00;102105.59;7373575;19;20420;-37
2023/08/10 08:00:41;;;;;;;39.13;13.90;;;;;;;14.74;100.00;102120.06;7398785;19;20411;-38
2023/08/10 08:03:11;;;;;;;28.40;10.90;;;;;;;14.79;100.00;102128.06;7373151;19;20436;-37
2023/08/10 08:05:41;;;;;;;8.20;2.97;;;;;;;14.87;100.00;102137.09;7395720;19;20990;-38
2023/08/10 08:08:11;;;;;;;63.70;22.77;;;;;;;15.08;100.00;102131.97;7371220;19;20427;-38
2023/08/10 08:10:41;;;;;;;7.60;2.30;;;;;;;15.01;100.00;102142.94;7393744;19;20414;-37
2023/08/10 08:13:13;;;;;;;15.73;4.20;;;;;;;14.92;100.00;102147.72;7372128;19;20486;-38
2023/08/10 08:15:43;;;;;;;7.57;2.37;;;;;;;14.83;100.00;102140.38;7396594;19;20443;-37
2023/08/10 08:18:43;;;;;;;11.37;2.10;;;;;;;14.80;100.00;102143.72;7371356;19;20427;-40
2023/08/10 08:21:15;;;;;;;10.80;2.63;;;;;;;14.85;100.00;102133.53;7395993;19;20427;-39
2023/08/10 08:23:44;;;;;;;16.13;3.40;;;;;;;14.82;100.00;102149.88;7372771;19;20434;-38
2023/08/10 08:26:14;;;;;;;36.63;14.90;;;;;;;14.79;100.00;102162.75;7395768;19;20793;-38
2023/08/10 08:28:47;;;;;;;14.60;3.00;;;;;;;14.80;100.00;102177.50;7372359;19;20985;-38
2023/08/10 08:31:17;;;;;;;19.50;7.33;;;;;;;14.94;100.00;102175.56;7396141;19;20427;-38
2023/08/10 08:33:47;;;;;;;13.93;5.00;;;;;;;15.27;100.00;102176.13;7367926;19;20447;-37
2023/08/10 08:36:16;;;;;;;8.43;2.70;;;;;;;15.34;100.00;102180.78;7395406;19;20813;-37
2023/08/10 08:38:46;;;;;;;14.20;2.33;;;;;;;15.50;100.00;102182.34;7372858;19;20426;-39
2023/08/10 08:41:19;;;;;;;51.50;19.93;;;;;;;15.34;100.00;102189.47;7397961;19;20463;-38
2023/08/10 08:43:51;;;;;;;27.33;9.43;;;;;;;15.09;100.00;102192.66;7370831;19;20435;-37
2023/08/10 08:46:28;;;;;;;11.37;3.90;;;;;;;15.35;100.00;102191.25;7396967;19;20931;-41
2023/08/10 08:48:58;;;;;;;23.17;5.33;;;;;;;15.55;100.00;102195.56;7371660;19;20463;-38
2023/08/10 08:51:28;;;;;;;16.60;5.30;;;;;;;15.72;100.00;102188.47;7395713;19;21077;-38
2023/08/10 08:54:00;;;;;;;9.50;1.70;;;;;;;16.02;100.00;102183.75;7370404;19;21332;-40
2023/08/10 08:56:30;;;;;;;21.83;8.20;;;;;;;15.79;100.00;102175.81;7395105;19;20463;-37
2023/08/10 08:59:04;;;;;;;7.90;1.80;;;;;;;15.47;100.00;102190.91;7370286;19;20451;-37
2023/08/10 09:01:33;;;;;;;15.83;6.10;;;;;;;15.33;100.00;102189.41;7397679;19;20777;-39
2023/08/10 09:04:03;;;;;;;11.70;3.87;;;;;;;15.33;100.00;102195.47;7370031;19;20435;-37
2023/08/10 09:06:33;;;;;;;23.03;5.80;;;;;;;15.61;100.00;102193.22;7394732;19;20459;-42
2023/08/10 09:09:02;;;;;;;6.27;1.67;;;;;;;15.77;100.00;102184.38;7370463;19;21070;-38
2023/08/10 09:11:32;;;;;;;13.47;2.27;;;;;;;15.95;100.00;102181.72;7395585;19;20404;-37
2023/08/10 09:14:11;;;;;;;15.70;7.37;;;;;;;16.16;100.00;102167.81;7368998;19;20448;-38
2023/08/10 09:16:44;;;;;;;28.60;12.00;;;;;;;16.29;100.00;102177.91;7395796;19;20519;-38
2023/08/10 09:19:15;;;;;;;12.80;4.67;;;;;;;16.41;100.00;102158.38;7371658;19;20455;-39
2023/08/10 09:21:46;;;;;;;7.50;1.83;;;;;;;16.37;100.00;102159.97;7396536;19;20431;-39
2023/08/10 09:24:17;;;;;;;12.63;4.40;;;;;;;16.18;100.00;102130.59;7370527;19;20480;-38
2023/08/10 09:26:50;;;;;;;8.90;2.00;;;;;;;16.37;100.00;102127.84;7393489;19;20864;-40
2023/08/10 09:29:33;;;;;;;11.97;3.37;;;;;;;16.51;100.00;102125.78;7371023;19;20467;-37
2023/08/10 09:32:03;;;;;;;31.53;10.03;;;;;;;16.48;100.00;102097.88;7395475;19;20408;-42
2023/08/10 09:34:33;;;;;;;22.10;8.40;;;;;;;16.41;100.00;102098.47;7369622;19;20506;-41
2023/08/10 09:37:03;;;;;;;10.30;3.67;;;;;;;16.16;100.00;102107.94;7394996;19;20427;-41
2023/08/10 09:39:33;;;;;;;15.47;5.60;;;;;;;16.22;100.00;102100.38;7370852;19;20435;-37
2023/08/10 09:42:03;;;;;;;14.10;4.70;;;;;;;16.15;100.00;102075.78;7393353;19;20431;-37
2023/08/10 09:44:49;;;;;;;7.63;1.73;;;;;;;16.25;100.00;102082.25;7368889;19;20982;-42
2023/08/10 09:47:20;;;;;;;22.77;6.93;;;;;;;16.34;100.00;102034.84;7370982;19;20404;-39
2023/08/10 09:50:00;;;;;;;11.30;4.27;;;;;;;16.06;100.00;102023.38;7392068;19;20412;-41
2023/08/10 09:52:31;;;;;;;13.00;4.63;;;;;;;16.08;100.00;102046.84;7370391;19;22208;-38
2023/08/10 09:55:00;;;;;;;46.77;17.43;;;;;;;16.35;100.00;102046.16;7393131;19;20412;-38
2023/08/10 09:57:30;;;;;;;30.00;9.83;;;;;;;16.48;100.00;102011.94;7370754;19;20515;-37
2023/08/10 10:00:10;;;;;;;22.57;5.00;;;;;;;16.50;100.00;101997.25;7392205;19;20463;-37
2023/08/10 10:02:39;;;;;;;15.37;4.87;;;;;;;16.39;100.00;101998.56;7369183;19;20427;-38
2023/08/10 10:05:10;;;;;;;12.40;4.10;;;;;;;16.25;100.00;102039.72;7392790;19;20463;-40
2023/08/10 10:07:51;;;;;;;9.00;2.20;;;;;;;16.22;100.00;102071.72;7369618;19;20439;-38
2023/08/10 10:10:21;;;;;;;17.93;5.10;;;;;;;16.00;100.00;102050.03;7393420;19;20412;-37
2023/08/10 10:12:52;;;;;;;32.20;12.63;;;;;;;15.86;100.00;102022.53;7366134;19;20459;-40
2023/08/10 10:15:28;;;;;;;12.60;2.23;;;;;;;15.98;100.00;102024.75;7391979;19;20456;-40
2023/08/10 10:17:57;;;;;;;7.70;1.67;;;;;;;16.06;100.00;102003.41;7369537;19;20876;-42
2023/08/10 10:20:27;;;;;;;14.17;2.50;;;;;;;16.22;100.00;101980.59;7393195;19;20420;-38
2023/08/10 10:22:57;;;;;;;10.07;2.10;;;;;;;16.12;100.00;101960.22;7367794;19;20435;-38
2023/08/10 10:25:26;;;;;;;7.80;1.77;;;;;;;16.13;100.00;101988.03;7392955;19;20503;-37
2023/08/10 10:27:56;;;;;;;3.50;1.33;;;;;;;16.27;100.00;101953.03;7368963;19;20448;-41
2023/08/10 10:30:29;;;;;;;7.50;1.93;;;;;;;16.46;100.00;101870.34;7391921;19;20423;-38
2023/08/10 10:32:59;;;;;;;9.73;1.70;;;;;;;16.67;100.00;101805.03;7366201;19;20423;-45
2023/08/10 10:35:34;;;;;;;8.90;1.57;;;;;;;17.00;100.00;101787.84;7390396;19;21369;-40
2023/08/10 10:38:03;;;;;;;8.00;1.80;;;;;;;17.22;100.00;101757.28;7366869;19;20804;-45
2023/08/10 10:40:33;;;;;;;12.43;1.90;;;;;;;17.31;100.00;101749.72;7394286;19;20424;-40
2023/08/10 10:43:15;;;;;;;6.43;1.90;;;;;;;16.89;100.00;101636.38;7368486;19;20444;-40
2023/08/10 10:45:48;;;;;;;8.97;1.40;;;;;;;16.84;100.00;101615.38;7391938;19;20447;-39
2023/08/10 10:48:18;;;;;;;9.43;2.67;;;;;;;17.36;100.00;101622.94;7368243;19;20435;-40
2023/08/10 10:50:48;;;;;;;12.87;2.73;;;;;;;17.59;100.00;101593.97;7393157;19;20471;-39
2023/08/10 10:53:18;;;;;;;11.10;2.20;;;;;;;17.24;100.00;101584.34;7369429;19;20424;-42
2023/08/10 10:55:50;;;;;;;18.47;5.90;;;;;;;16.85;100.00;101671.88;7392677;19;20463;-42
2023/08/10 10:58:20;;;;;;;8.77;1.73;;;;;;;16.47;100.00;101565.66;7364718;19;20523;-41
2023/08/10 11:00:53;;;;;;;8.60;1.70;;;;;;;16.82;100.00;101569.28;7391221;19;20410;-38
2023/08/10 11:03:23;;;;;;;9.27;1.50;;;;;;;17.23;100.00;101467.00;7368500;19;20994;-38
2023/08/10 11:05:53;;;;;;;5.93;0.90;;;;;;;17.35;100.00;101427.31;7389842;19;20538;-38
2023/08/10 11:08:22;;;;;;;7.60;2.00;;;;;;;17.75;100.00;101424.75;7367079;19;20820;-37
2023/08/10 11:10:55;;;;;;;6.63;1.30;;;;;;;17.98;100.00;101395.66;7389681;19;20411;-40
2023/08/10 11:13:26;;;;;;;7.43;1.90;;;;;;;17.92;100.00;101417.28;7368095;19;20441;-43
2023/08/10 11:15:58;;;;;;;8.40;1.70;;;;;;;17.43;100.00;101377.94;7389341;19;20441;-46
2023/08/10 11:18:28;;;;;;;10.87;1.50;;;;;;;17.28;100.00;101356.75;7367443;19;20415;-41
2023/08/10 11:21:00;;;;;;;7.60;1.30;;;;;;;17.21;100.00;101370.47;7390700;19;20440;-39
2023/08/10 11:23:30;;;;;;;6.93;1.20;;;;;;;17.58;100.00;101378.28;7368070;19;20439;-38
2023/08/10 11:26:02;;;;;;;18.77;5.87;;;;;;;17.81;100.00;101357.91;7388701;19;20454;-39
2023/08/10 11:28:32;;;;;;;30.17;12.60;;;;;;;18.15;100.00;101315.13;7369307;19;20454;-38
2023/08/10 11:31:09;;;;;;;8.37;1.67;;;;;;;18.09;100.00;101294.97;7392121;19;20429;-39